Surabaya/Perak, Indonesia

6:03 AM WIB on February 27, 2017 (GMT +0700)
Juanda | | Change Station

Elev 7 ft 7.37 °S, 112.78 °E | Updated 33 minutes ago

Fog
Fog
77 °F
Feels Like 77 °F
N
2
Wind Variable Wind from Variable

Today
High -- | Low -- °F
--% Chance of Precip.
Yesterday
High -- | Low -- °F
Precip. -- in
Pressure 29.77 in
Visibility 0.9 miles
Clouds Few 1800 ft
Dew Point 75 °F
Humidity 94%
Rainfall 0.00 in
Snow Depth Not available.
5:34 AM 5:49 PM
New Moon, 0% visible
METAR WARR 262230Z VRB02KT 1500 BR FEW018CB 25/24 Q1008 NOSIG
Pressure 29.77 in
Visibility 0.9 miles
Clouds Few 1800 ft
Dew Point 75 °F
Humidity 94%
Rainfall 0.00 in
Snow Depth Not available.
5:34 AM 5:49 PM
New Moon, 0% visible
METAR WARR 262230Z VRB02KT 1500 BR FEW018CB 25/24 Q1008 NOSIG

Get Your Daily Forecast Email!

Thanks for signing up!

Be on the lookout for a verification email in your inbox.

You'll start receiving the daily forecast at 8 AM.

×

10-Day Weather Forecast

×

Almanac

Astronomy

Feb. 27, 2017 Rise Set
Actual Time
Civil Twilight
Nautical Twilight
Astronomical Twilight
Moon
Length of Visible Light
Length of Day
Tomorrow will be .
, % of the Moon is Illuminated

Today's Extremes

Country Highs Country Lows

Community

WunderPhotos

Upload Photos

1,962,540 photos uploaded!

WunderBlog® & News

Nearby

Air Quality

  Air Quality AQ Index Pollutant
Not available.

Snow Depth

Station Depth Elevation

Earthquake Activity

City Distance Mag. Time & Date
Minimum magnitude displayed is 2.5.

Coastal Water Temperatures

Place Temperature

Stations

Nearby Weather Stations

Station Location Temp. Windchill Dew Point Humidity Wind Precip. Elev Updated Type